Time;durP1;ratioP1;P1;durP2;ratioP2;P2;SDS_P1;SDS_P2;PMS_P1;PMS_P2;Temp;Humidity;BMP_temperature;BMP_pressure;BME280_temperature;BME280_humidity;BME280_pressure;Samples;Min_cycle;Max_cycle;Signal;HPM_P1;HPM_P2
2020/12/01 00:00:27;;;;;;;16.07;11.93;;;;;;;-144.99;100.00;52554.09;5048213;28;20652;-74
2020/12/01 00:02:53;;;;;;;14.20;10.93;;;;;;;-144.99;100.00;52521.47;5047888;28;20656;-76
2020/12/01 00:05:22;;;;;;;14.57;12.13;;;;;;;-144.99;100.00;52529.63;5049357;28;20632;-76
2020/12/01 00:07:48;;;;;;;14.60;11.33;;;;;;;-144.99;100.00;52480.72;5047406;28;20705;-74
2020/12/01 00:10:16;;;;;;;15.73;13.30;;;;;;;-144.99;100.00;52541.84;5048400;28;20620;-74
2020/12/01 00:12:42;;;;;;;15.43;10.83;;;;;;;-144.99;100.00;52505.16;5046944;28;20719;-75
2020/12/01 00:15:11;;;;;;;14.73;11.50;;;;;;;-144.99;100.00;52497.00;5048103;28;21196;-77
2020/12/01 00:17:38;;;;;;;18.80;12.43;;;;;;;-144.99;100.00;52497.00;5047554;28;20678;-77
2020/12/01 00:20:05;;;;;;;16.77;11.60;;;;;;;-144.99;100.00;52505.16;5046949;28;20656;-75
2020/12/01 00:22:31;;;;;;;16.70;12.87;;;;;;;-144.99;100.00;52505.16;5047763;28;22824;-76
2020/12/01 00:24:57;;;;;;;18.77;12.10;;;;;;;-144.99;100.00;52452.16;5055360;28;20849;-76
2020/12/01 00:27:24;;;;;;;19.50;12.90;;;;;;;-144.99;100.00;52513.31;5052567;28;20695;-77
2020/12/01 00:29:50;;;;;;;16.30;13.70;;;;;;;-144.99;100.00;52525.56;5049105;28;20670;-76
2020/12/01 00:32:16;;;;;;;17.27;13.23;;;;;;;-144.99;100.00;52521.47;5045313;28;20635;-75
2020/12/01 00:34:43;;;;;;;17.60;13.80;;;;;;;-144.99;100.00;52541.84;5049209;28;20655;-76
2020/12/01 00:37:09;;;;;;;17.80;13.23;;;;;;;-144.99;100.00;52513.31;5048491;28;20718;-75
2020/12/01 00:39:35;;;;;;;20.53;13.43;;;;;;;-144.99;100.00;52582.63;5054905;28;20659;-75
2020/12/01 00:42:02;;;;;;;19.17;13.43;;;;;;;-144.99;100.00;52541.84;5046851;28;21347;-75
2020/12/01 00:44:28;;;;;;;20.27;14.50;;;;;;;-144.99;100.00;52501.09;5050256;28;20690;-77
2020/12/01 00:46:54;;;;;;;21.13;16.50;;;;;;;-144.99;100.00;52513.31;5050822;28;21177;-74
2020/12/01 00:49:20;;;;;;;18.10;13.53;;;;;;;-144.99;100.00;52533.69;5052979;28;21192;-75
2020/12/01 00:51:49;;;;;;;19.57;14.60;;;;;;;-144.99;100.00;52497.00;5048792;28;20623;-75
2020/12/01 00:54:15;;;;;;;19.73;13.40;;;;;;;-144.99;100.00;52525.56;5053485;28;20624;-74
2020/12/01 00:56:42;;;;;;;17.20;13.17;;;;;;;-144.99;100.00;52505.16;5053610;28;20639;-75
2020/12/01 00:59:08;;;;;;;20.27;13.97;;;;;;;-144.99;100.00;52513.31;5057988;28;20630;-75
2020/12/01 01:01:34;;;;;;;22.70;14.77;;;;;;;-144.99;100.00;52509.25;5054103;28;20619;-74
2020/12/01 01:04:00;;;;;;;23.00;17.20;;;;;;;-144.99;100.00;52525.56;5045479;28;20679;-74
2020/12/01 01:06:26;;;;;;;18.90;14.70;;;;;;;-144.99;100.00;52521.47;5051985;28;20643;-73
2020/12/01 01:08:53;;;;;;;22.27;15.23;;;;;;;-144.99;100.00;52541.84;5054490;28;20836;-75
2020/12/01 01:11:27;;;;;;;21.07;15.63;;;;;;;-144.99;100.00;52541.84;5053733;28;20658;-74
2020/12/01 01:13:53;;;;;;;23.53;15.17;;;;;;;-144.99;100.00;52474.59;5050037;28;20669;-74
2020/12/01 01:16:20;;;;;;;23.60;15.93;;;;;;;-144.99;100.00;52472.56;5052414;28;20998;-74
2020/12/01 01:18:46;;;;;;;19.37;15.20;;;;;;;-144.99;100.00;52527.59;5056626;28;21459;-74
2020/12/01 01:21:12;;;;;;;28.43;18.10;;;;;;;-144.99;100.00;52543.91;5049215;28;20731;-74
2020/12/01 01:23:38;;;;;;;23.17;15.83;;;;;;;-144.99;100.00;52545.94;5051742;28;20660;-74
2020/12/01 01:26:05;;;;;;;22.63;16.03;;;;;;;-144.99;100.00;52550.00;5048909;28;20652;-75
2020/12/01 01:28:31;;;;;;;19.63;15.00;;;;;;;-144.99;100.00;52513.31;5049320;28;20679;-72
2020/12/01 01:30:57;;;;;;;24.53;17.17;;;;;;;-144.99;100.00;52492.94;5054960;28;20723;-74
2020/12/01 01:33:23;;;;;;;23.97;15.90;;;;;;;-144.99;100.00;52439.94;5049945;28;20624;-71
2020/12/01 01:35:49;;;;;;;24.83;16.83;;;;;;;-144.99;100.00;52513.31;5045102;28;21204;-71
2020/12/01 01:38:16;;;;;;;21.77;16.10;;;;;;;-144.99;100.00;52521.47;5049104;28;21287;-72
2020/12/01 01:40:42;;;;;;;22.23;16.73;;;;;;;-144.99;100.00;52525.56;5051073;28;21258;-73
2020/12/01 01:43:10;;;;;;;20.87;15.20;;;;;;;-144.99;100.00;52488.84;5054181;28;21272;-73
2020/12/01 01:45:43;;;;;;;21.43;15.57;;;;;;;-144.99;100.00;52468.47;5052325;28;20635;-72
2020/12/01 01:48:17;;;;;;;22.43;15.63;;;;;;;-144.99;100.00;52497.00;5049111;28;20686;-74
2020/12/01 01:50:51;;;;;;;23.40;18.47;;;;;;;-144.99;100.00;52519.44;5055174;28;20777;-73
2020/12/01 01:53:17;;;;;;;23.00;15.23;;;;;;;-144.99;100.00;52525.56;5052113;28;20677;-73
2020/12/01 01:55:45;;;;;;;23.50;17.20;;;;;;;-144.99;100.00;52521.47;5046688;28;20984;-74
2020/12/01 01:58:15;;;;;;;22.23;17.30;;;;;;;-144.99;100.00;52492.94;5048867;28;20972;-73
2020/12/01 02:00:56;;;;;;;23.77;16.77;;;;;;;-144.99;100.00;52484.78;5049190;28;20716;-73
2020/12/01 02:03:34;;;;;;;23.93;17.00;;;;;;;-144.99;100.00;52517.41;5049192;28;20665;-73
2020/12/01 02:06:00;;;;;;;19.37;15.47;;;;;;;-144.99;100.00;52505.16;5042521;28;20623;-72
2020/12/01 02:08:28;;;;;;;22.23;16.60;;;;;;;-144.99;100.00;52497.00;5048844;28;20683;-74
2020/12/01 02:10:56;;;;;;;22.47;15.40;;;;;;;-144.99;100.00;52554.09;5051054;28;21185;-74
2020/12/01 02:13:28;;;;;;;26.97;16.17;;;;;;;-144.99;100.00;52525.56;5050991;28;20647;-75
2020/12/01 02:15:55;;;;;;;20.43;16.03;;;;;;;-144.99;100.00;52484.78;5042871;28;20642;-74
2020/12/01 02:18:28;;;;;;;22.83;15.17;;;;;;;-144.99;100.00;52527.59;5053526;28;20647;-73
2020/12/01 02:20:55;;;;;;;21.10;16.47;;;;;;;-144.99;100.00;52488.84;5050329;28;21227;-75
2020/12/01 02:23:21;;;;;;;22.70;19.53;;;;;;;-144.99;100.00;52525.56;5046153;28;20652;-75
2020/12/01 02:25:47;;;;;;;25.37;17.73;;;;;;;-144.99;100.00;52488.84;5049320;28;20727;-75
2020/12/01 02:28:14;;;;;;;21.50;17.13;;;;;;;-144.99;100.00;52517.41;5050869;28;20636;-75
2020/12/01 02:30:41;;;;;;;25.47;18.07;;;;;;;-144.99;100.00;52562.25;5049620;28;20715;-76
2020/12/01 02:33:07;;;;;;;23.43;16.37;;;;;;;-144.99;100.00;52523.50;5050638;28;20620;-76
2020/12/01 02:35:33;;;;;;;22.37;16.17;;;;;;;-144.99;100.00;52562.25;5051190;28;21184;-76
2020/12/01 02:37:59;;;;;;;21.27;15.17;;;;;;;-144.99;100.00;52456.25;5053025;28;20757;-75
2020/12/01 02:40:25;;;;;;;24.33;16.37;;;;;;;-144.99;100.00;52533.69;5047471;28;20673;-74
2020/12/01 02:42:52;;;;;;;24.00;16.70;;;;;;;-144.99;100.00;52509.25;5048274;28;21025;-74
2020/12/01 02:45:19;;;;;;;26.57;17.53;;;;;;;-144.99;100.00;52488.84;5049040;28;20636;-74
2020/12/01 02:47:46;;;;;;;23.37;16.30;;;;;;;-144.99;100.00;52525.56;5053968;28;20709;-75
2020/12/01 02:50:12;;;;;;;22.17;15.40;;;;;;;-144.99;100.00;52497.00;5042938;28;20639;-75
2020/12/01 02:52:39;;;;;;;22.40;15.87;;;;;;;-144.99;100.00;52497.00;5056139;28;20748;-73
2020/12/01 02:55:05;;;;;;;25.30;18.23;;;;;;;-144.99;100.00;52554.09;5049766;28;20723;-72
2020/12/01 02:57:32;;;;;;;28.53;19.03;;;;;;;-144.99;100.00;52521.47;5041853;28;20655;-73
2020/12/01 02:59:58;;;;;;;20.97;14.53;;;;;;;-144.99;100.00;52497.00;5051705;28;21369;-73
2020/12/01 03:02:25;;;;;;;20.73;14.40;;;;;;;-144.99;100.00;52497.00;5051923;28;21265;-73
2020/12/01 03:04:51;;;;;;;21.00;16.40;;;;;;;-144.99;100.00;52476.63;5045753;28;21025;-73
2020/12/01 03:07:18;;;;;;;22.20;16.50;;;;;;;-144.99;100.00;52509.25;5056088;28;21026;-72
2020/12/01 03:09:44;;;;;;;20.83;15.90;;;;;;;-144.99;100.00;52494.97;5052299;28;21081;-74
2020/12/01 03:12:10;;;;;;;21.07;15.90;;;;;;;-144.99;100.00;52497.00;5047241;28;20984;-74
2020/12/01 03:14:36;;;;;;;21.23;16.37;;;;;;;-144.99;100.00;52480.72;5056788;28;20634;-73
2020/12/01 03:17:03;;;;;;;20.50;16.30;;;;;;;-144.99;100.00;52521.47;5050826;28;20729;-73
2020/12/01 03:19:30;;;;;;;22.20;18.27;;;;;;;-144.99;100.00;52509.25;5047972;28;20698;-73
2020/12/01 03:21:56;;;;;;;24.97;17.70;;;;;;;-144.99;100.00;52521.47;5046727;28;20721;-73
2020/12/01 03:24:22;;;;;;;20.13;17.20;;;;;;;-144.99;100.00;52515.34;5048704;28;20741;-72
2020/12/01 03:26:48;;;;;;;23.27;15.63;;;;;;;-144.99;100.00;52452.16;5052060;28;20637;-75
2020/12/01 03:29:14;;;;;;;21.73;15.97;;;;;;;-144.99;100.00;52501.09;5049065;28;20654;-74
2020/12/01 03:31:41;;;;;;;23.50;16.93;;;;;;;-144.99;100.00;52501.09;5046957;28;21037;-74
2020/12/01 03:34:07;;;;;;;22.07;17.43;;;;;;;-144.99;100.00;52497.00;5054404;28;20631;-74
2020/12/01 03:36:34;;;;;;;27.23;18.67;;;;;;;-144.99;100.00;52525.56;5048175;28;20661;-73
2020/12/01 03:39:00;;;;;;;24.23;18.03;;;;;;;-144.99;100.00;52523.50;5058422;28;20700;-74
2020/12/01 03:41:26;;;;;;;21.50;16.30;;;;;;;-144.99;100.00;52529.63;5045440;28;20663;-74
2020/12/01 03:43:52;;;;;;;22.67;17.10;;;;;;;-144.99;100.00;52517.41;5048827;28;20651;-74
2020/12/01 03:46:19;;;;;;;23.47;17.30;;;;;;;-144.99;100.00;52492.94;5048041;28;20674;-73
2020/12/01 03:48:45;;;;;;;25.73;18.00;;;;;;;-144.99;100.00;52505.16;5048263;28;21059;-74
2020/12/01 03:51:11;;;;;;;21.83;16.70;;;;;;;-144.99;100.00;52521.47;5052472;28;21167;-74
2020/12/01 03:53:38;;;;;;;24.03;17.20;;;;;;;-144.99;100.00;52509.25;5045049;28;20660;-73
2020/12/01 03:56:06;;;;;;;22.27;16.53;;;;;;;-144.99;100.00;52507.19;5048177;28;20644;-73
2020/12/01 03:58:33;;;;;;;23.57;16.93;;;;;;;-144.99;100.00;52509.25;5052409;28;20721;-74
2020/12/01 04:00:59;;;;;;;23.03;16.57;;;;;;;-144.99;100.00;52513.31;5048815;28;20616;-74
2020/12/01 04:03:25;;;;;;;22.60;16.97;;;;;;;-144.99;100.00;52521.47;5048300;28;21080;-75
2020/12/01 04:05:51;;;;;;;22.03;15.67;;;;;;;-144.99;100.00;52505.16;5047282;28;20689;-73
2020/12/01 04:08:17;;;;;;;19.13;15.10;;;;;;;-144.99;100.00;52541.84;5050716;28;20695;-74
2020/12/01 04:10:45;;;;;;;24.90;17.30;;;;;;;-144.99;100.00;52501.09;5053110;28;21278;-74
2020/12/01 04:13:12;;;;;;;20.83;15.97;;;;;;;-144.99;100.00;52507.19;5047269;28;21178;-72
2020/12/01 04:15:38;;;;;;;20.77;16.47;;;;;;;-144.99;100.00;52521.47;5045549;28;21228;-73
2020/12/01 04:18:04;;;;;;;20.73;15.63;;;;;;;-144.99;100.00;52529.63;5048094;28;20667;-73
2020/12/01 04:20:30;;;;;;;27.03;18.83;;;;;;;-144.99;100.00;52492.94;5055123;28;20634;-73
2020/12/01 04:22:56;;;;;;;22.87;16.50;;;;;;;-144.99;100.00;52480.72;5052716;28;20646;-73
2020/12/01 04:25:24;;;;;;;21.67;15.33;;;;;;;-144.99;100.00;52525.56;5050558;28;21256;-73
2020/12/01 04:27:53;;;;;;;21.83;16.63;;;;;;;-144.99;100.00;52505.16;5053200;28;20754;-73
2020/12/01 04:30:20;;;;;;;22.00;15.73;;;;;;;-144.99;100.00;52492.94;5051458;28;20688;-73
2020/12/01 04:32:46;;;;;;;20.17;15.47;;;;;;;-144.99;100.00;52480.72;5050836;28;20624;-73
2020/12/01 04:35:14;;;;;;;17.03;14.80;;;;;;;-144.99;100.00;52492.94;5051319;28;20656;-73
2020/12/01 04:37:40;;;;;;;20.70;14.07;;;;;;;-144.99;100.00;52501.09;5048582;28;20703;-73
2020/12/01 04:40:07;;;;;;;19.43;15.60;;;;;;;-144.99;100.00;52529.63;5053476;28;20654;-74
2020/12/01 04:42:35;;;;;;;18.33;13.77;;;;;;;-144.99;100.00;52525.56;5050102;28;20616;-73
2020/12/01 04:45:08;;;;;;;19.47;15.30;;;;;;;-144.99;100.00;52497.00;5052282;28;20717;-71
2020/12/01 04:47:37;;;;;;;18.97;14.77;;;;;;;-144.99;100.00;52517.41;5049625;28;20697;-72
2020/12/01 04:50:07;;;;;;;21.87;14.97;;;;;;;-144.99;100.00;52521.47;5052626;28;20670;-72
2020/12/01 04:53:00;;;;;;;20.83;15.20;;;;;;;-144.99;100.00;52505.16;5049929;28;20725;-73
2020/12/01 04:55:51;;;;;;;18.43;13.93;;;;;;;-144.99;100.00;52529.63;5049483;28;20703;-73
2020/12/01 04:58:45;;;;;;;19.93;14.73;;;;;;;-144.99;100.00;52511.28;5077523;22;20682;-74
2020/12/01 05:01:16;;;;;;;19.00;13.87;;;;;;;-144.99;100.00;52525.56;5088055;28;20730;-72
2020/12/01 05:04:06;;;;;;;16.67;12.77;;;;;;;-144.99;100.00;52501.09;5091591;28;20730;-72
2020/12/01 05:06:51;;;;;;;18.93;13.10;;;;;;;-144.99;100.00;52497.00;5091316;28;21016;-74
2020/12/01 05:09:23;;;;;;;20.43;15.47;;;;;;;-144.99;100.00;52499.06;5086320;28;20714;-73
2020/12/01 05:11:55;;;;;;;20.77;14.80;;;;;;;-144.99;100.00;52470.50;5087679;28;20658;-72
2020/12/01 05:14:36;;;;;;;16.60;11.07;;;;;;;-144.99;100.00;52484.78;5090242;28;20614;-75
2020/12/01 05:17:32;;;;;;;18.40;13.43;;;;;;;-144.99;100.00;52517.41;5089771;28;20683;-75
2020/12/01 05:19:58;;;;;;;17.77;12.43;;;;;;;-144.99;100.00;52501.09;5090150;28;21200;-73
2020/12/01 05:22:25;;;;;;;17.20;14.37;;;;;;;-144.99;100.00;52517.41;5086068;28;20653;-73
2020/12/01 05:24:53;;;;;;;14.67;10.87;;;;;;;-144.99;100.00;52497.00;5089173;28;20649;-72
2020/12/01 05:27:26;;;;;;;16.33;13.20;;;;;;;-144.99;100.00;52529.63;5088557;28;20663;-74
2020/12/01 05:29:57;;;;;;;20.10;12.77;;;;;;;-144.99;100.00;52513.31;5089189;28;20671;-73
2020/12/01 05:32:26;;;;;;;18.00;13.90;;;;;;;-144.99;100.00;52533.69;5088026;28;21030;-73
2020/12/01 05:34:52;;;;;;;16.90;13.07;;;;;;;-144.99;100.00;52476.63;5087385;28;20671;-72
2020/12/01 05:37:18;;;;;;;19.77;13.47;;;;;;;-144.99;100.00;52558.16;5090729;28;20630;-72
2020/12/01 05:39:45;;;;;;;16.87;12.30;;;;;;;-144.99;100.00;52492.94;5090507;28;20998;-72
2020/12/01 05:42:18;;;;;;;21.03;15.27;;;;;;;-144.99;100.00;52517.41;5090457;28;20633;-72
2020/12/01 05:44:56;;;;;;;19.97;14.23;;;;;;;-144.99;100.00;52533.69;5086948;28;20654;-71
2020/12/01 05:47:33;;;;;;;20.17;16.53;;;;;;;-144.99;100.00;52484.78;5091166;28;20650;-72
2020/12/01 05:50:09;;;;;;;20.83;14.53;;;;;;;-144.99;100.00;52545.94;5083574;28;20671;-72
2020/12/01 05:52:46;;;;;;;20.57;14.83;;;;;;;-144.99;100.00;52497.00;5089354;28;20633;-72
2020/12/01 05:55:16;;;;;;;18.43;13.83;;;;;;;-144.99;100.00;52529.63;5090313;28;20957;-70
2020/12/01 05:57:43;;;;;;;18.57;14.83;;;;;;;-144.99;100.00;52497.00;5085305;28;21032;-72
2020/12/01 06:00:16;;;;;;;19.90;15.10;;;;;;;-144.99;100.00;52505.16;5086614;28;20657;-72
2020/12/01 06:02:49;;;;;;;20.00;14.07;;;;;;;-144.99;100.00;52460.31;5079610;28;20626;-73
2020/12/01 06:05:20;;;;;;;20.83;14.33;;;;;;;-144.99;100.00;52525.56;5088584;28;21076;-72
2020/12/01 06:07:48;;;;;;;17.53;14.70;;;;;;;-144.99;100.00;52515.34;5088143;28;20618;-72
2020/12/01 06:10:28;;;;;;;17.20;11.83;;;;;;;-144.99;100.00;52452.16;5090329;28;20663;-70
2020/12/01 06:13:14;;;;;;;21.00;15.70;;;;;;;-144.99;100.00;52531.66;5080722;28;20622;-74
2020/12/01 06:15:53;;;;;;;20.33;14.67;;;;;;;-144.99;100.00;52529.63;5089421;28;20629;-72
2020/12/01 06:18:31;;;;;;;17.37;14.63;;;;;;;-144.99;100.00;52497.00;5088455;28;21296;-72
2020/12/01 06:21:03;;;;;;;20.83;13.73;;;;;;;-144.99;100.00;52558.16;5089478;28;20717;-71
2020/12/01 06:23:54;;;;;;;21.20;15.33;;;;;;;-144.99;100.00;52509.25;5089419;28;21183;-72
2020/12/01 06:26:58;;;;;;;19.80;14.20;;;;;;;-144.99;100.00;52509.25;5087536;28;20630;-72
2020/12/01 06:30:02;;;;;;;22.00;15.80;;;;;;;-144.99;100.00;52488.84;5090336;28;20658;-73
2020/12/01 06:33:20;;;;;;;17.90;13.57;;;;;;;-144.99;100.00;52492.94;5090196;28;20736;-71
2020/12/01 06:36:12;;;;;;;20.50;15.90;;;;;;;-144.99;100.00;52517.41;5086076;28;20622;-73
2020/12/01 06:38:52;;;;;;;18.90;14.03;;;;;;;-144.99;100.00;52529.63;5086027;28;20671;-72
2020/12/01 06:41:22;;;;;;;21.43;16.33;;;;;;;-144.99;100.00;52509.25;5086001;28;21213;-72
2020/12/01 06:43:51;;;;;;;24.57;15.90;;;;;;;-144.99;100.00;52501.09;5091302;28;20662;-72
2020/12/01 06:46:38;;;;;;;19.13;15.13;;;;;;;-144.99;100.00;52529.63;5084884;28;20629;-73
2020/12/01 06:49:07;;;;;;;21.43;16.30;;;;;;;-144.99;100.00;52492.94;5086218;28;20630;-73
2020/12/01 06:51:34;;;;;;;24.57;18.20;;;;;;;-144.99;100.00;52501.09;5084951;28;20657;-73
2020/12/01 06:54:09;;;;;;;21.70;13.87;;;;;;;-144.99;100.00;52517.41;5086547;28;20642;-74
2020/12/01 06:56:35;;;;;;;22.77;13.70;;;;;;;-144.99;100.00;52501.09;5083698;28;20630;-73
2020/12/01 06:59:08;;;;;;;20.73;13.33;;;;;;;-144.99;100.00;52529.63;5089148;28;20646;-74
2020/12/01 07:01:36;;;;;;;21.17;13.67;;;;;;;-144.99;100.00;52503.13;5079605;28;20615;-73
2020/12/01 07:04:28;;;;;;;20.50;14.33;;;;;;;-144.99;100.00;52545.94;5086289;28;20786;-73
2020/12/01 07:06:58;;;;;;;21.27;16.10;;;;;;;-144.99;100.00;52488.84;5086695;28;21034;-74
2020/12/01 07:09:28;;;;;;;20.73;15.33;;;;;;;-144.99;100.00;52523.50;5079260;28;20653;-72
2020/12/01 07:12:32;;;;;;;24.53;15.07;;;;;;;-144.99;100.00;52497.00;5084785;28;21163;-73
2020/12/01 07:15:04;;;;;;;20.97;15.33;;;;;;;-144.99;100.00;52503.13;5085746;28;20645;-74
2020/12/01 07:17:42;;;;;;;17.70;13.63;;;;;;;-144.99;100.00;52484.78;5078063;28;20634;-74
2020/12/01 07:20:30;;;;;;;15.10;12.00;;;;;;;-144.99;100.00;52448.09;5088555;28;20618;-75
2020/12/01 07:23:05;;;;;;;20.80;14.57;;;;;;;-144.99;100.00;52513.31;5079937;28;20745;-75
2020/12/01 07:25:37;;;;;;;22.40;16.57;;;;;;;-144.99;100.00;52525.56;5079920;28;20652;-75
2020/12/01 07:28:19;;;;;;;18.03;13.13;;;;;;;-144.99;100.00;52472.56;5087210;28;20658;-74
2020/12/01 07:30:51;;;;;;;20.83;15.07;;;;;;;-144.99;100.00;52488.84;5084277;28;20668;-75
2020/12/01 07:33:21;;;;;;;20.73;17.47;;;;;;;-144.99;100.00;52521.47;5089051;28;20745;-72
2020/12/01 07:35:50;;;;;;;22.23;14.37;;;;;;;-144.99;100.00;52529.63;5083521;28;20619;-73
2020/12/01 07:38:28;;;;;;;21.73;15.23;;;;;;;-144.99;100.00;52505.16;5088899;28;20657;-74
2020/12/01 07:40:57;;;;;;;20.53;16.97;;;;;;;-144.99;100.00;52541.84;5078090;28;20618;-73
2020/12/01 07:43:24;;;;;;;23.30;17.57;;;;;;;-144.99;100.00;52497.00;5091147;28;20952;-73
2020/12/01 07:45:59;;;;;;;22.67;18.00;;;;;;;-144.99;100.00;52513.31;5082347;28;20788;-73
2020/12/01 07:48:26;;;;;;;22.90;18.80;;;;;;;-144.99;100.00;52501.09;5083969;28;20722;-72
2020/12/01 07:51:02;;;;;;;31.03;17.57;;;;;;;-144.99;100.00;52490.91;5085115;28;20622;-73
2020/12/01 07:53:34;;;;;;;26.83;19.40;;;;;;;-144.99;100.00;52501.09;5088577;28;20652;-74
2020/12/01 07:56:05;;;;;;;27.93;18.33;;;;;;;-144.99;100.00;52462.34;5087660;28;20633;-72
2020/12/01 07:58:32;;;;;;;23.93;18.20;;;;;;;-144.99;100.00;52550.00;5087537;28;20637;-75
2020/12/01 08:01:01;;;;;;;32.60;17.43;;;;;;;-144.99;100.00;52476.63;5080151;28;20658;-72
2020/12/01 08:03:38;;;;;;;27.77;18.70;;;;;;;-144.99;100.00;52468.47;5089352;28;20779;-73
2020/12/01 08:06:06;;;;;;;27.17;16.23;;;;;;;-144.99;100.00;52513.31;5080147;28;20619;-74
2020/12/01 08:08:35;;;;;;;24.43;19.10;;;;;;;-144.99;100.00;52513.31;5080572;28;20650;-75
2020/12/01 08:11:03;;;;;;;28.97;19.37;;;;;;;-144.99;100.00;52484.78;5077218;28;20979;-77
2020/12/01 08:13:32;;;;;;;24.60;18.23;;;;;;;-144.99;100.00;52501.09;5082195;28;20658;-76
2020/12/01 08:16:01;;;;;;;26.90;18.83;;;;;;;-144.99;100.00;52507.19;5084413;28;20631;-76
2020/12/01 08:18:29;;;;;;;25.27;18.10;;;;;;;-144.99;100.00;52492.94;5082848;28;20664;-75
2020/12/01 08:20:56;;;;;;;27.07;18.20;;;;;;;-144.99;100.00;52480.72;5077526;28;21067;-76
2020/12/01 08:23:26;;;;;;;23.37;17.20;;;;;;;-144.99;100.00;52517.41;5085502;28;20679;-75
2020/12/01 08:26:02;;;;;;;27.60;19.20;;;;;;;-144.99;100.00;52517.41;5083894;28;21062;-75
2020/12/01 08:28:34;;;;;;;28.43;21.10;;;;;;;-144.99;100.00;52488.84;5077642;28;20633;-74
2020/12/01 08:31:07;;;;;;;28.93;19.43;;;;;;;-144.99;100.00;52503.13;5082588;28;20633;-76
2020/12/01 08:33:46;;;;;;;32.63;22.13;;;;;;;-144.99;100.00;52525.56;5081688;28;20990;-74
2020/12/01 08:36:29;;;;;;;39.67;26.90;;;;;;;-144.99;100.00;52501.09;5083216;28;20632;-74
2020/12/01 08:39:13;;;;;;;30.90;19.67;;;;;;;-144.99;100.00;52529.63;5082014;28;20653;-73
2020/12/01 08:41:48;;;;;;;37.67;24.30;;;;;;;-144.99;100.00;52509.25;5074735;28;20630;-75
2020/12/01 08:44:28;;;;;;;31.83;20.47;;;;;;;-144.99;100.00;52488.84;5088360;28;20661;-74
2020/12/01 08:46:56;;;;;;;35.73;23.40;;;;;;;-144.99;100.00;52488.84;5085762;28;20610;-74
2020/12/01 08:49:41;;;;;;;42.13;27.53;;;;;;;-144.99;100.00;52501.09;5085755;28;20649;-73
2020/12/01 08:52:42;;;;;;;31.77;21.27;;;;;;;-144.99;100.00;52517.41;5081238;28;20618;-74
2020/12/01 08:55:23;;;;;;;27.93;20.83;;;;;;;-144.99;100.00;52541.84;5068430;28;20631;-74
2020/12/01 08:57:57;;;;;;;33.73;22.33;;;;;;;-144.99;100.00;52484.78;5073515;28;20862;-73
2020/12/01 09:00:24;;;;;;;36.87;22.07;;;;;;;-144.99;100.00;52460.31;5080766;28;20652;-76
2020/12/01 09:02:53;;;;;;;35.03;22.00;;;;;;;-144.99;100.00;52474.59;5086233;28;20717;-75
2020/12/01 09:05:28;;;;;;;26.23;18.57;;;;;;;-144.99;100.00;52494.97;5077470;28;20655;-75
2020/12/01 09:08:05;;;;;;;36.00;21.13;;;;;;;-144.99;100.00;52492.94;5079805;28;20728;-75
2020/12/01 09:10:34;;;;;;;26.10;17.03;;;;;;;-144.99;100.00;52515.34;5090991;28;20648;-75
2020/12/01 09:13:12;;;;;;;31.07;22.87;;;;;;;-144.99;100.00;52476.63;5086904;28;20689;-75
2020/12/01 09:16:02;;;;;;;34.83;19.07;;;;;;;-144.99;100.00;52509.25;5078942;28;21209;-75
2020/12/01 09:18:44;;;;;;;26.80;17.63;;;;;;;-144.99;100.00;52488.84;5085858;28;20808;-75
2020/12/01 09:24:00;;;;;;;33.27;20.43;;;;;;;-144.99;100.00;52509.25;5083949;28;20656;-75
2020/12/01 09:26:27;;;;;;;27.50;19.43;;;;;;;-144.99;100.00;52488.84;5089274;28;20757;-75
2020/12/01 09:28:54;;;;;;;33.13;25.10;;;;;;;-144.99;100.00;52480.72;5085477;28;20739;-74
2020/12/01 09:31:22;;;;;;;30.80;19.50;;;;;;;-144.99;100.00;52509.25;5084681;28;20655;-74
2020/12/01 09:33:49;;;;;;;33.70;20.97;;;;;;;-144.99;100.00;52488.84;5092851;28;21220;-76
2020/12/01 09:36:17;;;;;;;32.33;20.13;;;;;;;-144.99;100.00;52521.47;5077954;28;20967;-74
2020/12/01 09:38:43;;;;;;;24.07;18.37;;;;;;;-144.99;100.00;52480.72;5088395;28;20780;-74
2020/12/01 09:41:14;;;;;;;28.87;19.00;;;;;;;-144.99;100.00;52472.56;5089354;28;20633;-76
2020/12/01 09:43:43;;;;;;;29.53;19.87;;;;;;;-144.99;100.00;52519.44;5094360;28;21193;-75
2020/12/01 09:46:12;;;;;;;30.07;18.27;;;;;;;-144.99;100.00;52492.94;5086821;28;20618;-75
2020/12/01 09:48:40;;;;;;;29.10;22.27;;;;;;;-144.99;100.00;52497.00;5087519;28;20997;-74
2020/12/01 09:51:08;;;;;;;29.57;19.40;;;;;;;-144.99;100.00;52517.41;5087640;28;20637;-76
2020/12/01 09:53:45;;;;;;;30.77;20.83;;;;;;;-144.99;100.00;52497.00;5090631;28;20683;-75
2020/12/01 09:56:29;;;;;;;22.60;17.00;;;;;;;-144.99;100.00;52497.00;5085080;28;20712;-75
2020/12/01 09:59:22;;;;;;;27.87;18.67;;;;;;;-144.99;100.00;52464.41;5087541;28;20661;-75
2020/12/01 10:10:12;;;;;;;24.87;18.20;;;;;;;-144.99;100.00;52525.56;5092431;28;21206;-76
2020/12/01 10:12:47;;;;;;;25.93;18.07;;;;;;;-144.99;100.00;52488.84;5090779;28;20617;-75
2020/12/01 10:21:01;;;;;;;27.47;19.17;;;;;;;-144.99;100.00;52509.25;5091221;28;20965;-75
2020/12/01 10:34:43;;;;;;;33.17;22.30;;;;;;;-144.99;100.00;52521.47;5096608;28;21002;-75
2020/12/01 10:37:10;;;;;;;30.00;18.87;;;;;;;-144.99;100.00;52460.31;5090770;28;20630;-75
2020/12/01 10:39:37;;;;;;;26.97;20.40;;;;;;;-144.99;100.00;52501.09;5089512;28;21041;-75
2020/12/01 10:42:07;;;;;;;33.53;21.87;;;;;;;-144.99;100.00;52488.84;5090401;28;20618;-75
2020/12/01 10:44:33;;;;;;;27.93;18.40;;;;;;;-144.99;100.00;52480.72;5089441;28;20677;-75
2020/12/01 10:46:59;;;;;;;22.73;17.93;;;;;;;-144.99;100.00;52488.84;5078869;28;20654;-75
2020/12/01 10:49:26;;;;;;;26.83;19.33;;;;;;;-144.99;100.00;52517.41;5081266;28;20712;-75
2020/12/01 10:51:52;;;;;;;26.73;16.97;;;;;;;-144.99;100.00;52480.72;5078153;28;20649;-75
2020/12/01 10:54:18;;;;;;;27.77;16.73;;;;;;;-144.99;100.00;52456.25;5089963;28;20629;-74
2020/12/01 10:56:47;;;;;;;33.97;22.10;;;;;;;-144.99;100.00;52515.34;5089228;28;21346;-76
2020/12/01 10:59:14;;;;;;;36.30;25.20;;;;;;;-144.99;100.00;52497.00;5089442;28;21215;-74
2020/12/01 11:01:40;;;;;;;34.80;19.50;;;;;;;-144.99;100.00;52531.66;5088996;28;21163;-74
2020/12/01 11:04:06;;;;;;;34.90;21.20;;;;;;;-144.99;100.00;52464.41;5084645;28;20975;-73
2020/12/01 11:06:32;;;;;;;32.27;21.97;;;;;;;-144.99;100.00;52501.09;5088647;28;20613;-73
2020/12/01 11:08:58;;;;;;;28.93;18.90;;;;;;;-144.99;100.00;52484.78;5083946;28;20651;-75
2020/12/01 11:11:24;;;;;;;28.03;19.10;;;;;;;-144.99;100.00;52513.31;5087807;28;21074;-72
2020/12/01 11:13:51;;;;;;;49.93;25.80;;;;;;;-144.99;100.00;52480.72;5088699;28;21279;-73
2020/12/01 11:16:18;;;;;;;28.30;19.27;;;;;;;-144.99;100.00;52501.09;5089484;28;20757;-73
2020/12/01 11:18:44;;;;;;;26.87;18.73;;;;;;;-144.99;100.00;52505.16;5082539;28;20655;-75
2020/12/01 11:21:10;;;;;;;24.07;17.63;;;;;;;-144.99;100.00;52517.41;5090346;28;20622;-74
2020/12/01 11:23:36;;;;;;;25.77;18.60;;;;;;;-144.99;100.00;52501.09;5080796;28;21211;-74
2020/12/01 11:26:03;;;;;;;29.90;19.73;;;;;;;-144.99;100.00;52517.41;5088250;28;20646;-74
2020/12/01 11:28:29;;;;;;;29.20;18.47;;;;;;;-144.99;100.00;52533.69;5076597;28;20619;-72
2020/12/01 11:30:57;;;;;;;24.60;17.60;;;;;;;-144.99;100.00;52529.63;5079353;28;20772;-73
2020/12/01 11:33:23;;;;;;;24.63;17.37;;;;;;;-144.99;100.00;52456.25;5090011;28;20614;-73
2020/12/01 11:35:49;;;;;;;28.47;17.47;;;;;;;-144.99;100.00;52509.25;5087120;28;20622;-73
2020/12/01 11:38:16;;;;;;;24.60;17.37;;;;;;;-144.99;100.00;52511.28;5078808;28;20665;-74